sensor_id;sensor_type;location;lat;lon;timestamp;P1;durP1;ratioP1;P2;durP2;ratioP2
52858;SDS011;38721;53.098;6.596;2023-04-01T00:00:56;9.43;;;7.55;;
52858;SDS011;38721;53.098;6.596;2023-04-01T00:03:23;9.38;;;7.50;;
52858;SDS011;38721;53.098;6.596;2023-04-01T00:05:53;10.50;;;7.95;;
52858;SDS011;38721;53.098;6.596;2023-04-01T00:08:25;9.57;;;7.28;;
52858;SDS011;38721;53.098;6.596;2023-04-01T00:10:52;9.65;;;7.05;;
52858;SDS011;38721;53.098;6.596;2023-04-01T00:13:19;9.05;;;7.25;;
52858;SDS011;38721;53.098;6.596;2023-04-01T00:15:45;9.88;;;7.10;;
52858;SDS011;38721;53.098;6.596;2023-04-01T00:18:14;9.05;;;7.22;;
52858;SDS011;38721;53.098;6.596;2023-04-01T00:20:47;8.32;;;7.38;;
52858;SDS011;38721;53.098;6.596;2023-04-01T00:23:15;9.70;;;7.20;;
52858;SDS011;38721;53.098;6.596;2023-04-01T00:25:41;9.43;;;7.28;;
52858;SDS011;38721;53.098;6.596;2023-04-01T00:28:07;9.75;;;6.93;;
52858;SDS011;38721;53.098;6.596;2023-04-01T00:30:33;8.10;;;6.78;;
52858;SDS011;38721;53.098;6.596;2023-04-01T00:33:01;9.45;;;7.20;;
52858;SDS011;38721;53.098;6.596;2023-04-01T00:35:30;9.40;;;7.22;;
52858;SDS011;38721;53.098;6.596;2023-04-01T00:37:57;9.40;;;7.20;;
52858;SDS011;38721;53.098;6.596;2023-04-01T00:40:25;9.60;;;6.63;;
52858;SDS011;38721;53.098;6.596;2023-04-01T00:42:58;8.60;;;6.85;;
52858;SDS011;38721;53.098;6.596;2023-04-01T00:45:29;7.45;;;6.30;;
52858;SDS011;38721;53.098;6.596;2023-04-01T00:48:05;10.90;;;7.13;;
52858;SDS011;38721;53.098;6.596;2023-04-01T00:50:36;9.73;;;7.10;;
52858;SDS011;38721;53.098;6.596;2023-04-01T00:53:04;9.70;;;6.70;;
52858;SDS011;38721;53.098;6.596;2023-04-01T00:55:32;10.40;;;6.95;;
52858;SDS011;38721;53.098;6.596;2023-04-01T00:58:02;9.80;;;7.18;;
52858;SDS011;38721;53.098;6.596;2023-04-01T01:00:32;9.57;;;7.82;;
52858;SDS011;38721;53.098;6.596;2023-04-01T01:03:02;12.50;;;8.05;;
52858;SDS011;38721;53.098;6.596;2023-04-01T01:11:13;11.02;;;7.72;;
52858;SDS011;38721;53.098;6.596;2023-04-01T01:13:48;11.45;;;8.13;;
52858;SDS011;38721;53.098;6.596;2023-04-01T01:16:27;11.23;;;7.32;;
52858;SDS011;38721;53.098;6.596;2023-04-01T01:18:58;10.52;;;7.72;;
52858;SDS011;38721;53.098;6.596;2023-04-01T01:21:50;12.55;;;7.72;;
52858;SDS011;38721;53.098;6.596;2023-04-01T01:27:20;10.57;;;7.30;;
52858;SDS011;38721;53.098;6.596;2023-04-01T01:35:48;13.18;;;7.75;;
52858;SDS011;38721;53.098;6.596;2023-04-01T01:38:24;12.05;;;8.15;;
52858;SDS011;38721;53.098;6.596;2023-04-01T01:40:54;11.45;;;8.00;;
52858;SDS011;38721;53.098;6.596;2023-04-01T01:43:25;10.27;;;7.68;;
52858;SDS011;38721;53.098;6.596;2023-04-01T01:45:58;10.60;;;7.65;;
52858;SDS011;38721;53.098;6.596;2023-04-01T01:48:27;13.75;;;8.07;;
52858;SDS011;38721;53.098;6.596;2023-04-01T01:50:55;9.63;;;7.60;;
52858;SDS011;38721;53.098;6.596;2023-04-01T01:53:24;10.82;;;7.95;;
52858;SDS011;38721;53.098;6.596;2023-04-01T01:55:56;10.70;;;8.15;;
52858;SDS011;38721;53.098;6.596;2023-04-01T02:01:04;10.93;;;8.40;;
52858;SDS011;38721;53.098;6.596;2023-04-01T02:03:37;13.07;;;8.05;;
52858;SDS011;38721;53.098;6.596;2023-04-01T02:06:06;11.27;;;8.40;;
52858;SDS011;38721;53.098;6.596;2023-04-01T02:09:20;11.82;;;8.13;;
52858;SDS011;38721;53.098;6.596;2023-04-01T02:11:36;11.88;;;8.68;;
52858;SDS011;38721;53.098;6.596;2023-04-01T02:14:10;11.57;;;8.00;;
52858;SDS011;38721;53.098;6.596;2023-04-01T02:16:49;11.75;;;7.38;;
52858;SDS011;38721;53.098;6.596;2023-04-01T02:19:22;10.30;;;7.80;;
52858;SDS011;38721;53.098;6.596;2023-04-01T02:21:54;13.63;;;9.35;;
52858;SDS011;38721;53.098;6.596;2023-04-01T02:24:22;13.13;;;8.65;;
52858;SDS011;38721;53.098;6.596;2023-04-01T02:26:51;13.55;;;9.15;;
52858;SDS011;38721;53.098;6.596;2023-04-01T02:29:18;16.52;;;9.30;;
52858;SDS011;38721;53.098;6.596;2023-04-01T02:31:46;13.57;;;9.02;;
52858;SDS011;38721;53.098;6.596;2023-04-01T02:34:16;14.00;;;9.15;;
52858;SDS011;38721;53.098;6.596;2023-04-01T02:36:42;14.70;;;10.02;;
52858;SDS011;38721;53.098;6.596;2023-04-01T02:39:08;13.90;;;9.15;;
52858;SDS011;38721;53.098;6.596;2023-04-01T02:41:41;14.75;;;9.13;;
52858;SDS011;38721;53.098;6.596;2023-04-01T02:44:12;15.18;;;9.43;;
52858;SDS011;38721;53.098;6.596;2023-04-01T02:46:38;13.57;;;9.52;;
52858;SDS011;38721;53.098;6.596;2023-04-01T02:49:04;13.35;;;8.65;;
52858;SDS011;38721;53.098;6.596;2023-04-01T02:51:31;14.40;;;8.82;;
52858;SDS011;38721;53.098;6.596;2023-04-01T02:54:00;13.65;;;9.30;;
52858;SDS011;38721;53.098;6.596;2023-04-01T02:56:26;14.60;;;9.15;;
52858;SDS011;38721;53.098;6.596;2023-04-01T02:58:53;12.65;;;8.93;;
52858;SDS011;38721;53.098;6.596;2023-04-01T03:01:18;14.15;;;8.70;;
52858;SDS011;38721;53.098;6.596;2023-04-01T03:03:45;14.88;;;9.50;;
52858;SDS011;38721;53.098;6.596;2023-04-01T03:06:12;17.00;;;9.10;;
52858;SDS011;38721;53.098;6.596;2023-04-01T03:08:40;14.25;;;9.68;;
52858;SDS011;38721;53.098;6.596;2023-04-01T03:11:06;13.43;;;9.50;;
52858;SDS011;38721;53.098;6.596;2023-04-01T03:13:32;14.23;;;10.20;;
52858;SDS011;38721;53.098;6.596;2023-04-01T03:15:58;16.10;;;10.07;;
52858;SDS011;38721;53.098;6.596;2023-04-01T03:18:27;17.05;;;10.27;;
52858;SDS011;38721;53.098;6.596;2023-04-01T03:20:55;16.45;;;10.75;;
52858;SDS011;38721;53.098;6.596;2023-04-01T03:23:24;13.95;;;9.82;;
52858;SDS011;38721;53.098;6.596;2023-04-01T03:25:50;19.45;;;11.27;;
52858;SDS011;38721;53.098;6.596;2023-04-01T03:28:15;14.13;;;10.00;;
52858;SDS011;38721;53.098;6.596;2023-04-01T03:30:41;17.88;;;11.32;;
52858;SDS011;38721;53.098;6.596;2023-04-01T03:33:10;14.23;;;10.38;;
52858;SDS011;38721;53.098;6.596;2023-04-01T03:35:35;16.77;;;11.82;;
52858;SDS011;38721;53.098;6.596;2023-04-01T03:38:01;16.25;;;11.40;;
52858;SDS011;38721;53.098;6.596;2023-04-01T03:40:29;15.68;;;10.98;;
52858;SDS011;38721;53.098;6.596;2023-04-01T03:43:02;14.65;;;11.05;;
52858;SDS011;38721;53.098;6.596;2023-04-01T03:45:28;15.40;;;10.77;;
52858;SDS011;38721;53.098;6.596;2023-04-01T03:47:54;16.38;;;11.25;;
52858;SDS011;38721;53.098;6.596;2023-04-01T03:50:20;18.02;;;11.38;;
52858;SDS011;38721;53.098;6.596;2023-04-01T03:52:45;18.08;;;11.77;;
52858;SDS011;38721;53.098;6.596;2023-04-01T03:55:11;18.55;;;12.30;;
52858;SDS011;38721;53.098;6.596;2023-04-01T03:57:40;16.50;;;11.05;;
52858;SDS011;38721;53.098;6.596;2023-04-01T04:00:06;19.17;;;11.18;;
52858;SDS011;38721;53.098;6.596;2023-04-01T04:02:33;16.67;;;11.50;;
52858;SDS011;38721;53.098;6.596;2023-04-01T04:05:00;15.82;;;11.27;;
52858;SDS011;38721;53.098;6.596;2023-04-01T04:07:26;17.30;;;11.52;;
52858;SDS011;38721;53.098;6.596;2023-04-01T04:09:52;18.42;;;11.60;;
52858;SDS011;38721;53.098;6.596;2023-04-01T04:12:18;20.55;;;12.38;;
52858;SDS011;38721;53.098;6.596;2023-04-01T04:14:46;17.83;;;12.25;;
52858;SDS011;38721;53.098;6.596;2023-04-01T04:17:12;16.27;;;11.60;;
52858;SDS011;38721;53.098;6.596;2023-04-01T04:19:41;16.55;;;11.40;;
52858;SDS011;38721;53.098;6.596;2023-04-01T04:22:07;16.77;;;11.90;;
52858;SDS011;38721;53.098;6.596;2023-04-01T04:24:36;17.10;;;10.85;;
52858;SDS011;38721;53.098;6.596;2023-04-01T04:27:03;16.75;;;12.10;;
52858;SDS011;38721;53.098;6.596;2023-04-01T04:29:29;16.95;;;11.52;;
52858;SDS011;38721;53.098;6.596;2023-04-01T04:31:55;18.98;;;11.07;;
52858;SDS011;38721;53.098;6.596;2023-04-01T04:34:20;16.55;;;10.60;;
52858;SDS011;38721;53.098;6.596;2023-04-01T04:36:47;18.40;;;11.02;;
52858;SDS011;38721;53.098;6.596;2023-04-01T04:39:13;16.73;;;11.40;;
52858;SDS011;38721;53.098;6.596;2023-04-01T04:41:40;17.67;;;11.15;;
52858;SDS011;38721;53.098;6.596;2023-04-01T04:44:06;18.08;;;11.13;;
52858;SDS011;38721;53.098;6.596;2023-04-01T04:46:33;15.30;;;10.45;;
52858;SDS011;38721;53.098;6.596;2023-04-01T04:48:59;16.02;;;10.50;;
52858;SDS011;38721;53.098;6.596;2023-04-01T04:51:25;18.45;;;11.50;;
52858;SDS011;38721;53.098;6.596;2023-04-01T04:53:51;15.27;;;10.20;;
52858;SDS011;38721;53.098;6.596;2023-04-01T04:56:20;15.30;;;10.73;;
52858;SDS011;38721;53.098;6.596;2023-04-01T04:58:47;16.17;;;10.18;;
52858;SDS011;38721;53.098;6.596;2023-04-01T05:01:14;14.27;;;9.27;;
52858;SDS011;38721;53.098;6.596;2023-04-01T05:03:41;13.32;;;9.32;;
52858;SDS011;38721;53.098;6.596;2023-04-01T05:06:07;15.65;;;9.25;;
52858;SDS011;38721;53.098;6.596;2023-04-01T05:08:34;14.60;;;9.65;;
52858;SDS011;38721;53.098;6.596;2023-04-01T05:11:01;16.27;;;9.50;;
52858;SDS011;38721;53.098;6.596;2023-04-01T05:13:27;13.45;;;9.57;;
52858;SDS011;38721;53.098;6.596;2023-04-01T05:15:54;14.50;;;9.40;;
52858;SDS011;38721;53.098;6.596;2023-04-01T05:18:20;12.52;;;9.02;;
52858;SDS011;38721;53.098;6.596;2023-04-01T05:20:50;13.55;;;9.02;;
52858;SDS011;38721;53.098;6.596;2023-04-01T05:23:17;14.25;;;9.25;;
52858;SDS011;38721;53.098;6.596;2023-04-01T05:25:46;15.18;;;9.25;;
52858;SDS011;38721;53.098;6.596;2023-04-01T05:28:12;13.63;;;9.38;;
52858;SDS011;38721;53.098;6.596;2023-04-01T05:30:42;16.42;;;9.80;;
52858;SDS011;38721;53.098;6.596;2023-04-01T05:33:08;13.50;;;8.93;;
52858;SDS011;38721;53.098;6.596;2023-04-01T05:35:35;14.32;;;8.93;;
52858;SDS011;38721;53.098;6.596;2023-04-01T05:38:01;10.90;;;7.55;;
52858;SDS011;38721;53.098;6.596;2023-04-01T05:40:27;9.32;;;7.03;;
52858;SDS011;38721;53.098;6.596;2023-04-01T05:42:53;10.95;;;6.88;;
52858;SDS011;38721;53.098;6.596;2023-04-01T05:45:19;6.88;;;5.22;;
52858;SDS011;38721;53.098;6.596;2023-04-01T05:47:45;6.80;;;4.78;;
52858;SDS011;38721;53.098;6.596;2023-04-01T05:50:13;9.85;;;5.03;;
52858;SDS011;38721;53.098;6.596;2023-04-01T05:52:40;7.72;;;5.70;;
52858;SDS011;38721;53.098;6.596;2023-04-01T05:55:05;9.70;;;6.13;;
52858;SDS011;38721;53.098;6.596;2023-04-01T05:57:31;10.95;;;7.13;;
52858;SDS011;38721;53.098;6.596;2023-04-01T05:59:57;10.98;;;7.30;;
52858;SDS011;38721;53.098;6.596;2023-04-01T06:02:29;12.90;;;8.32;;
52858;SDS011;38721;53.098;6.596;2023-04-01T06:05:00;14.55;;;9.25;;
52858;SDS011;38721;53.098;6.596;2023-04-01T06:07:34;16.50;;;9.70;;
52858;SDS011;38721;53.098;6.596;2023-04-01T06:10:00;14.43;;;8.60;;
52858;SDS011;38721;53.098;6.596;2023-04-01T06:15:04;13.23;;;9.35;;
52858;SDS011;38721;53.098;6.596;2023-04-01T06:26:14;18.73;;;12.20;;
52858;SDS011;38721;53.098;6.596;2023-04-01T06:39:28;17.92;;;12.20;;
52858;SDS011;38721;53.098;6.596;2023-04-01T06:50:11;18.98;;;13.35;;
52858;SDS011;38721;53.098;6.596;2023-04-01T06:56:12;17.42;;;13.00;;
52858;SDS011;38721;53.098;6.596;2023-04-01T06:58:42;18.15;;;12.93;;
52858;SDS011;38721;53.098;6.596;2023-04-01T07:01:28;19.67;;;13.30;;
52858;SDS011;38721;53.098;6.596;2023-04-01T07:07:19;20.83;;;14.07;;
52858;SDS011;38721;53.098;6.596;2023-04-01T07:09:56;19.98;;;14.18;;
52858;SDS011;38721;53.098;6.596;2023-04-01T07:12:33;19.23;;;13.80;;
52858;SDS011;38721;53.098;6.596;2023-04-01T07:17:55;22.15;;;15.10;;
52858;SDS011;38721;53.098;6.596;2023-04-01T07:20:27;23.02;;;15.88;;
52858;SDS011;38721;53.098;6.596;2023-04-01T07:23:01;22.48;;;14.65;;
52858;SDS011;38721;53.098;6.596;2023-04-01T07:25:31;22.27;;;15.82;;
52858;SDS011;38721;53.098;6.596;2023-04-01T07:28:14;23.15;;;15.20;;
52858;SDS011;38721;53.098;6.596;2023-04-01T07:30:52;23.50;;;15.77;;
52858;SDS011;38721;53.098;6.596;2023-04-01T07:33:42;25.25;;;17.08;;
52858;SDS011;38721;53.098;6.596;2023-04-01T07:39:37;25.40;;;16.97;;
52858;SDS011;38721;53.098;6.596;2023-04-01T07:42:05;25.85;;;17.13;;
52858;SDS011;38721;53.098;6.596;2023-04-01T07:50:33;30.48;;;19.17;;
52858;SDS011;38721;53.098;6.596;2023-04-01T07:59:31;28.23;;;18.25;;
52858;SDS011;38721;53.098;6.596;2023-04-01T08:10:46;28.05;;;18.15;;
52858;SDS011;38721;53.098;6.596;2023-04-01T08:13:46;24.80;;;16.58;;
52858;SDS011;38721;53.098;6.596;2023-04-01T08:19:30;26.90;;;17.75;;
52858;SDS011;38721;53.098;6.596;2023-04-01T08:22:23;24.17;;;15.93;;
52858;SDS011;38721;53.098;6.596;2023-04-01T08:24:54;28.20;;;17.83;;
52858;SDS011;38721;53.098;6.596;2023-04-01T08:27:26;25.25;;;15.95;;
52858;SDS011;38721;53.098;6.596;2023-04-01T08:32:42;23.25;;;15.48;;
52858;SDS011;38721;53.098;6.596;2023-04-01T08:37:45;21.30;;;14.95;;
52858;SDS011;38721;53.098;6.596;2023-04-01T08:40:25;24.35;;;16.17;;
52858;SDS011;38721;53.098;6.596;2023-04-01T08:43:13;22.55;;;14.77;;
52858;SDS011;38721;53.098;6.596;2023-04-01T08:56:42;19.05;;;13.20;;
52858;SDS011;38721;53.098;6.596;2023-04-01T09:21:58;13.80;;;10.27;;
52858;SDS011;38721;53.098;6.596;2023-04-01T09:24:46;13.68;;;9.90;;
52858;SDS011;38721;53.098;6.596;2023-04-01T09:27:52;13.38;;;9.93;;
52858;SDS011;38721;53.098;6.596;2023-04-01T09:30:31;12.93;;;9.50;;
52858;SDS011;38721;53.098;6.596;2023-04-01T09:44:14;13.43;;;10.05;;
52858;SDS011;38721;53.098;6.596;2023-04-01T09:54:59;4.80;;;3.67;;
52858;SDS011;38721;53.098;6.596;2023-04-01T10:03:38;5.85;;;4.28;;
52858;SDS011;38721;53.098;6.596;2023-04-01T10:06:34;5.65;;;4.18;;
52858;SDS011;38721;53.098;6.596;2023-04-01T10:16:02;5.30;;;3.95;;
52858;SDS011;38721;53.098;6.596;2023-04-01T10:21:22;5.07;;;4.03;;
52858;SDS011;38721;53.098;6.596;2023-04-01T10:32:25;3.95;;;3.40;;
52858;SDS011;38721;53.098;6.596;2023-04-01T10:35:41;5.97;;;3.88;;
52858;SDS011;38721;53.098;6.596;2023-04-01T10:46:57;5.18;;;3.10;;
52858;SDS011;38721;53.098;6.596;2023-04-01T11:00:28;4.10;;;2.60;;
52858;SDS011;38721;53.098;6.596;2023-04-01T11:09:07;4.93;;;2.50;;
52858;SDS011;38721;53.098;6.596;2023-04-01T11:23:02;3.75;;;2.90;;
52858;SDS011;38721;53.098;6.596;2023-04-01T11:28:27;2.72;;;2.47;;
52858;SDS011;38721;53.098;6.596;2023-04-01T11:31:04;3.03;;;2.47;;
52858;SDS011;38721;53.098;6.596;2023-04-01T11:39:29;4.25;;;3.20;;
52858;SDS011;38721;53.098;6.596;2023-04-01T11:42:18;3.38;;;2.38;;
52858;SDS011;38721;53.098;6.596;2023-04-01T11:44:54;3.13;;;2.60;;
52858;SDS011;38721;53.098;6.596;2023-04-01T11:47:45;3.55;;;2.70;;
52858;SDS011;38721;53.098;6.596;2023-04-01T11:50:24;3.35;;;2.78;;
52858;SDS011;38721;53.098;6.596;2023-04-01T11:59:09;2.85;;;2.58;;
52858;SDS011;38721;53.098;6.596;2023-04-01T12:19:26;2.72;;;2.38;;
52858;SDS011;38721;53.098;6.596;2023-04-01T12:24:46;3.50;;;2.47;;
52858;SDS011;38721;53.098;6.596;2023-04-01T12:30:51;2.40;;;2.20;;
52858;SDS011;38721;53.098;6.596;2023-04-01T12:36:31;4.03;;;2.70;;
52858;SDS011;38721;53.098;6.596;2023-04-01T12:39:17;2.75;;;2.55;;
52858;SDS011;38721;53.098;6.596;2023-04-01T12:44:52;3.20;;;2.50;;
52858;SDS011;38721;53.098;6.596;2023-04-01T12:47:29;5.88;;;2.50;;
52858;SDS011;38721;53.098;6.596;2023-04-01T12:53:06;3.10;;;2.80;;
52858;SDS011;38721;53.098;6.596;2023-04-01T12:55:50;3.47;;;2.63;;
52858;SDS011;38721;53.098;6.596;2023-04-01T13:14:54;2.67;;;2.40;;
52858;SDS011;38721;53.098;6.596;2023-04-01T13:28:33;2.50;;;2.30;;
52858;SDS011;38721;53.098;6.596;2023-04-01T13:42:39;3.60;;;2.25;;
52858;SDS011;38721;53.098;6.596;2023-04-01T14:01:42;2.50;;;2.30;;
52858;SDS011;38721;53.098;6.596;2023-04-01T14:10:13;2.88;;;2.05;;
52858;SDS011;38721;53.098;6.596;2023-04-01T14:29:58;2.50;;;2.30;;
52858;SDS011;38721;53.098;6.596;2023-04-01T14:38:39;3.00;;;2.30;;
52858;SDS011;38721;53.098;6.596;2023-04-01T14:41:20;2.40;;;2.20;;
52858;SDS011;38721;53.098;6.596;2023-04-01T14:44:05;2.65;;;2.30;;
52858;SDS011;38721;53.098;6.596;2023-04-01T14:49:22;2.40;;;2.20;;
52858;SDS011;38721;53.098;6.596;2023-04-01T14:52:11;2.85;;;2.35;;
52858;SDS011;38721;53.098;6.596;2023-04-01T14:54:57;2.50;;;2.05;;
52858;SDS011;38721;53.098;6.596;2023-04-01T14:57:36;2.90;;;2.35;;
52858;SDS011;38721;53.098;6.596;2023-04-01T15:00:14;2.80;;;2.00;;
52858;SDS011;38721;53.098;6.596;2023-04-01T15:02:45;2.35;;;2.05;;
52858;SDS011;38721;53.098;6.596;2023-04-01T15:08:08;2.80;;;2.30;;
52858;SDS011;38721;53.098;6.596;2023-04-01T15:16:13;3.00;;;2.22;;
52858;SDS011;38721;53.098;6.596;2023-04-01T15:25:05;3.65;;;2.20;;
52858;SDS011;38721;53.098;6.596;2023-04-01T15:33:06;3.47;;;2.65;;
52858;SDS011;38721;53.098;6.596;2023-04-01T15:41:40;4.30;;;2.85;;
52858;SDS011;38721;53.098;6.596;2023-04-01T15:44:41;3.20;;;2.50;;
52858;SDS011;38721;53.098;6.596;2023-04-01T15:47:31;3.08;;;2.60;;
52858;SDS011;38721;53.098;6.596;2023-04-01T15:52:55;4.65;;;3.00;;
52858;SDS011;38721;53.098;6.596;2023-04-01T15:55:48;3.50;;;2.78;;
52858;SDS011;38721;53.098;6.596;2023-04-01T16:01:34;4.28;;;3.00;;
52858;SDS011;38721;53.098;6.596;2023-04-01T16:04:35;3.58;;;3.17;;
52858;SDS011;38721;53.098;6.596;2023-04-01T16:07:31;3.60;;;3.25;;
52858;SDS011;38721;53.098;6.596;2023-04-01T16:13:34;4.38;;;3.30;;
52858;SDS011;38721;53.098;6.596;2023-04-01T16:16:17;6.32;;;4.00;;
52858;SDS011;38721;53.098;6.596;2023-04-01T16:25:14;6.07;;;4.05;;
52858;SDS011;38721;53.098;6.596;2023-04-01T16:28:22;6.10;;;4.20;;
52858;SDS011;38721;53.098;6.596;2023-04-01T16:31:01;6.72;;;4.47;;
52858;SDS011;38721;53.098;6.596;2023-04-01T16:36:43;7.72;;;4.72;;
52858;SDS011;38721;53.098;6.596;2023-04-01T16:50:42;7.18;;;4.63;;
52858;SDS011;38721;53.098;6.596;2023-04-01T16:53:30;5.80;;;4.35;;
52858;SDS011;38721;53.098;6.596;2023-04-01T16:58:27;7.55;;;4.85;;
52858;SDS011;38721;53.098;6.596;2023-04-01T17:01:01;8.88;;;5.03;;
52858;SDS011;38721;53.098;6.596;2023-04-01T17:03:33;9.13;;;5.57;;
52858;SDS011;38721;53.098;6.596;2023-04-01T17:08:56;8.02;;;5.35;;
52858;SDS011;38721;53.098;6.596;2023-04-01T17:11:39;8.50;;;5.55;;
52858;SDS011;38721;53.098;6.596;2023-04-01T17:14:24;8.60;;;5.68;;
52858;SDS011;38721;53.098;6.596;2023-04-01T17:17:11;6.68;;;4.80;;
52858;SDS011;38721;53.098;6.596;2023-04-01T17:25:23;9.75;;;5.28;;
52858;SDS011;38721;53.098;6.596;2023-04-01T17:28:10;7.78;;;5.35;;
52858;SDS011;38721;53.098;6.596;2023-04-01T17:30:47;9.25;;;5.22;;
52858;SDS011;38721;53.098;6.596;2023-04-01T17:33:26;7.07;;;4.93;;
52858;SDS011;38721;53.098;6.596;2023-04-01T17:36:08;7.43;;;4.90;;
52858;SDS011;38721;53.098;6.596;2023-04-01T17:38:48;9.52;;;5.00;;
52858;SDS011;38721;53.098;6.596;2023-04-01T17:41:36;8.90;;;5.80;;
52858;SDS011;38721;53.098;6.596;2023-04-01T17:50:02;6.80;;;4.85;;
52858;SDS011;38721;53.098;6.596;2023-04-01T17:52:55;8.82;;;5.13;;
52858;SDS011;38721;53.098;6.596;2023-04-01T17:58:14;6.63;;;4.72;;
52858;SDS011;38721;53.098;6.596;2023-04-01T18:16:55;7.60;;;4.78;;
52858;SDS011;38721;53.098;6.596;2023-04-01T18:22:48;7.88;;;4.88;;
52858;SDS011;38721;53.098;6.596;2023-04-01T18:25:38;10.70;;;5.38;;
52858;SDS011;38721;53.098;6.596;2023-04-01T18:28:24;9.50;;;5.35;;
52858;SDS011;38721;53.098;6.596;2023-04-01T18:33:45;9.32;;;5.60;;
52858;SDS011;38721;53.098;6.596;2023-04-01T18:36:37;8.13;;;5.78;;
52858;SDS011;38721;53.098;6.596;2023-04-01T18:42:19;7.57;;;5.43;;
52858;SDS011;38721;53.098;6.596;2023-04-01T18:51:49;8.43;;;5.95;;
52858;SDS011;38721;53.098;6.596;2023-04-01T18:57:13;7.45;;;5.38;;
52858;SDS011;38721;53.098;6.596;2023-04-01T19:02:42;10.82;;;6.22;;
52858;SDS011;38721;53.098;6.596;2023-04-01T19:07:55;9.23;;;6.32;;
52858;SDS011;38721;53.098;6.596;2023-04-01T19:10:55;9.50;;;5.75;;
52858;SDS011;38721;53.098;6.596;2023-04-01T19:13:45;10.38;;;6.60;;
52858;SDS011;38721;53.098;6.596;2023-04-01T19:16:49;9.32;;;6.03;;
52858;SDS011;38721;53.098;6.596;2023-04-01T19:19:48;10.40;;;6.30;;
52858;SDS011;38721;53.098;6.596;2023-04-01T19:28:43;12.23;;;6.53;;
52858;SDS011;38721;53.098;6.596;2023-04-01T19:36:46;12.02;;;7.07;;
52858;SDS011;38721;53.098;6.596;2023-04-01T19:39:31;12.70;;;7.35;;
52858;SDS011;38721;53.098;6.596;2023-04-01T19:53:02;12.68;;;7.47;;
52858;SDS011;38721;53.098;6.596;2023-04-01T19:55:48;13.27;;;7.72;;
52858;SDS011;38721;53.098;6.596;2023-04-01T19:58:28;10.90;;;7.72;;
52858;SDS011;38721;53.098;6.596;2023-04-01T20:01:03;13.13;;;7.10;;
52858;SDS011;38721;53.098;6.596;2023-04-01T20:17:07;12.15;;;6.43;;
52858;SDS011;38721;53.098;6.596;2023-04-01T20:19:43;13.38;;;6.03;;
52858;SDS011;38721;53.098;6.596;2023-04-01T20:22:28;8.10;;;5.65;;
52858;SDS011;38721;53.098;6.596;2023-04-01T20:25:37;11.60;;;6.25;;
52858;SDS011;38721;53.098;6.596;2023-04-01T20:42:56;10.65;;;6.20;;
52858;SDS011;38721;53.098;6.596;2023-04-01T20:50:57;8.52;;;5.40;;
52858;SDS011;38721;53.098;6.596;2023-04-01T21:02:25;9.85;;;4.97;;
52858;SDS011;38721;53.098;6.596;2023-04-01T21:07:54;7.47;;;4.70;;
52858;SDS011;38721;53.098;6.596;2023-04-01T21:10:32;11.73;;;5.78;;
52858;SDS011;38721;53.098;6.596;2023-04-01T21:15:52;9.25;;;5.35;;
52858;SDS011;38721;53.098;6.596;2023-04-01T21:18:36;8.57;;;5.18;;
52858;SDS011;38721;53.098;6.596;2023-04-01T21:32:33;7.50;;;4.57;;
52858;SDS011;38721;53.098;6.596;2023-04-01T21:35:14;8.90;;;5.30;;
52858;SDS011;38721;53.098;6.596;2023-04-01T21:38:31;7.72;;;5.22;;
52858;SDS011;38721;53.098;6.596;2023-04-01T21:44:26;9.77;;;5.10;;
52858;SDS011;38721;53.098;6.596;2023-04-01T22:04:22;10.88;;;5.10;;
52858;SDS011;38721;53.098;6.596;2023-04-01T22:07:14;8.10;;;4.88;;
52858;SDS011;38721;53.098;6.596;2023-04-01T22:09:51;11.18;;;5.32;;
52858;SDS011;38721;53.098;6.596;2023-04-01T22:12:35;10.32;;;5.30;;
52858;SDS011;38721;53.098;6.596;2023-04-01T22:15:16;8.95;;;5.25;;
52858;SDS011;38721;53.098;6.596;2023-04-01T22:20:33;9.45;;;5.05;;
52858;SDS011;38721;53.098;6.596;2023-04-01T22:26:00;7.85;;;4.43;;
52858;SDS011;38721;53.098;6.596;2023-04-01T22:28:57;9.13;;;4.65;;
52858;SDS011;38721;53.098;6.596;2023-04-01T22:32:11;11.43;;;4.88;;
52858;SDS011;38721;53.098;6.596;2023-04-01T22:34:55;8.23;;;4.35;;
52858;SDS011;38721;53.098;6.596;2023-04-01T22:40:27;6.20;;;3.95;;
52858;SDS011;38721;53.098;6.596;2023-04-01T22:43:20;8.95;;;4.85;;
52858;SDS011;38721;53.098;6.596;2023-04-01T22:48:36;6.45;;;4.20;;
52858;SDS011;38721;53.098;6.596;2023-04-01T22:54:03;7.97;;;4.97;;
52858;SDS011;38721;53.098;6.596;2023-04-01T22:56:39;7.00;;;4.15;;
52858;SDS011;38721;53.098;6.596;2023-04-01T22:59:21;9.75;;;4.97;;
52858;SDS011;38721;53.098;6.596;2023-04-01T23:01:52;8.23;;;4.20;;
52858;SDS011;38721;53.098;6.596;2023-04-01T23:04:23;15.27;;;4.68;;
52858;SDS011;38721;53.098;6.596;2023-04-01T23:06:56;7.43;;;4.45;;
52858;SDS011;38721;53.098;6.596;2023-04-01T23:09:26;7.72;;;4.30;;
52858;SDS011;38721;53.098;6.596;2023-04-01T23:12:09;6.82;;;4.60;;
52858;SDS011;38721;53.098;6.596;2023-04-01T23:14:39;6.55;;;4.55;;
52858;SDS011;38721;53.098;6.596;2023-04-01T23:17:16;8.10;;;4.57;;
52858;SDS011;38721;53.098;6.596;2023-04-01T23:31:02;10.23;;;5.03;;
52858;SDS011;38721;53.098;6.596;2023-04-01T23:33:29;10.15;;;4.95;;
52858;SDS011;38721;53.098;6.596;2023-04-01T23:35:59;8.52;;;4.38;;
52858;SDS011;38721;53.098;6.596;2023-04-01T23:38:34;9.65;;;5.07;;
52858;SDS011;38721;53.098;6.596;2023-04-01T23:41:03;8.07;;;4.50;;
52858;SDS011;38721;53.098;6.596;2023-04-01T23:43:35;11.48;;;4.07;;
52858;SDS011;38721;53.098;6.596;2023-04-01T23:46:03;8.90;;;4.25;;
52858;SDS011;38721;53.098;6.596;2023-04-01T23:48:42;8.55;;;4.00;;
52858;SDS011;38721;53.098;6.596;2023-04-01T23:51:29;6.93;;;3.97;;
52858;SDS011;38721;53.098;6.596;2023-04-01T23:54:10;8.40;;;4.47;;
52858;SDS011;38721;53.098;6.596;2023-04-01T23:56:51;8.48;;;4.40;;
52858;SDS011;38721;53.098;6.596;2023-04-01T23:59:24;5.95;;;3.47;;
